Time;durP1;ratioP1;P1;durP2;ratioP2;P2;SDS_P1;SDS_P2;PMS_P1;PMS_P2;Temp;Humidity;BMP_temperature;BMP_pressure;BME280_temperature;BME280_humidity;BME280_pressure;Samples;Min_cycle;Max_cycle;Signal;HPM_P1;HPM_P2
2023/01/31 00:00:02;;;;;;;14.48;7.50;;;;;;;3.34;86.58;100455.69;344413;28;1155;-82
2023/01/31 00:00:15;;;;;;;16.65;7.63;;;;;;;3.28;86.42;100453.03;344942;28;1031;-82
2023/01/31 00:00:27;;;;;;;14.13;6.82;;;;;;;3.32;86.49;100459.94;345014;28;1070;-82
2023/01/31 00:00:39;;;;;;;12.15;7.47;;;;;;;3.26;86.63;100465.91;344676;28;1047;-81
2023/01/31 00:00:51;;;;;;;11.75;7.22;;;;;;;3.29;86.51;100462.50;344537;28;1052;-81
2023/01/31 00:01:07;;;;;;;11.13;7.35;;;;;;;3.29;86.92;100457.34;345548;28;1161;-81
2023/01/31 00:01:26;;;;;;;15.18;9.13;;;;;;;3.23;86.36;100460.72;346411;28;1118;-82
2023/01/31 00:01:39;;;;;;;16.77;10.50;;;;;;;3.32;86.75;100459.94;346287;28;1007;-82
2023/01/31 00:01:51;;;;;;;12.88;8.13;;;;;;;3.30;86.39;100466.78;346365;28;1178;-81
2023/01/31 00:02:03;;;;;;;12.07;7.22;;;;;;;3.35;86.73;100454.84;346603;28;1053;-82
2023/01/31 00:02:15;;;;;;;11.10;6.30;;;;;;;3.41;86.39;100454.91;346272;28;1722;-82
2023/01/31 00:02:29;;;;;;;10.88;5.97;;;;;;;3.46;86.29;100439.50;346427;28;1054;-82
2023/01/31 00:02:41;;;;;;;11.30;6.13;;;;;;;3.50;86.16;100447.28;346414;28;1121;-82
2023/01/31 00:02:54;;;;;;;12.18;6.07;;;;;;;3.56;85.60;100473.06;346319;28;1102;-82
2023/01/31 00:03:05;;;;;;;12.88;6.53;;;;;;;3.60;85.93;100450.78;346513;28;1105;-81
2023/01/31 00:03:17;;;;;;;12.55;7.07;;;;;;;3.57;85.83;100461.91;346293;28;1033;-81
2023/01/31 00:03:29;;;;;;;12.82;7.53;;;;;;;3.56;85.34;100470.47;346376;28;1152;-82
2023/01/31 00:03:45;;;;;;;12.52;6.88;;;;;;;3.51;86.07;100471.28;346423;28;1168;-82
2023/01/31 00:04:02;;;;;;;13.17;8.80;;;;;;;3.48;85.78;100464.41;346332;28;1029;-82
2023/01/31 00:04:14;;;;;;;13.80;8.65;;;;;;;3.39;85.61;100466.88;346616;28;1223;-80
2023/01/31 00:04:26;;;;;;;11.85;6.55;;;;;;;3.43;85.63;100467.78;346349;28;1025;-79
2023/01/31 00:04:38;;;;;;;11.00;6.30;;;;;;;3.34;85.94;100468.53;346342;28;1240;-80
2023/01/31 00:04:50;;;;;;;12.40;6.40;;;;;;;3.33;86.27;100456.53;346305;28;1162;-79
2023/01/31 00:05:02;;;;;;;12.25;6.05;;;;;;;3.36;86.26;100461.69;346300;28;1043;-79
2023/01/31 00:05:15;;;;;;;10.75;6.35;;;;;;;3.37;85.79;100458.28;346560;28;1081;-80
2023/01/31 00:05:27;;;;;;;11.18;6.72;;;;;;;3.40;86.10;100468.59;346335;28;1031;-81
2023/01/31 00:05:41;;;;;;;12.90;6.80;;;;;;;3.40;86.25;100460.88;346449;28;1171;-81
2023/01/31 00:05:53;;;;;;;13.35;6.78;;;;;;;3.43;85.95;100468.63;346478;28;1054;-81
2023/01/31 00:06:15;;;;;;;12.90;6.88;;;;;;;3.43;85.93;100463.50;346395;28;1110;-81
2023/01/31 00:06:30;;;;;;;11.50;6.45;;;;;;;3.42;85.79;100468.59;346370;28;1176;-82
2023/01/31 00:06:43;;;;;;;11.48;6.68;;;;;;;3.34;86.07;100469.41;346366;28;1099;-80
2023/01/31 00:06:55;;;;;;;11.65;6.65;;;;;;;3.36;86.38;100467.72;346550;28;912;-79
2023/01/31 00:07:07;;;;;;;10.55;6.50;;;;;;;3.35;85.99;100471.13;346383;28;1131;-80
2023/01/31 00:07:19;;;;;;;10.73;6.35;;;;;;;3.23;86.18;100452.16;346375;28;1053;-79
2023/01/31 00:07:31;;;;;;;10.77;6.45;;;;;;;3.36;86.08;100466.84;346288;28;1096;-79
2023/01/31 00:07:43;;;;;;;11.18;6.28;;;;;;;3.42;86.33;100466.91;346206;28;1019;-81
2023/01/31 00:07:59;;;;;;;11.13;6.30;;;;;;;3.39;85.84;100466.88;345922;28;1030;-82
2023/01/31 00:08:14;;;;;;;10.70;6.30;;;;;;;3.38;86.09;100470.28;346164;28;1067;-81
2023/01/31 00:08:26;;;;;;;11.48;6.43;;;;;;;3.42;86.07;100464.34;346290;28;1229;-81
2023/01/31 00:08:38;;;;;;;11.80;6.30;;;;;;;3.45;85.78;100461.78;346077;28;1236;-81
2023/01/31 00:08:51;;;;;;;10.93;6.13;;;;;;;3.43;86.27;100455.78;346127;28;1208;-82
2023/01/31 00:09:05;;;;;;;13.52;7.43;;;;;;;3.40;86.20;100463.44;345899;28;1079;-81
2023/01/31 00:09:18;;;;;;;17.23;9.05;;;;;;;3.32;85.78;100475.34;346093;28;1824;-81
2023/01/31 00:09:30;;;;;;;16.00;8.60;;;;;;;3.35;86.10;100457.41;346049;28;1047;-81
2023/01/31 00:09:42;;;;;;;15.68;7.43;;;;;;;3.42;86.44;100466.91;344866;28;1152;-82
2023/01/31 00:09:54;;;;;;;16.02;7.05;;;;;;;3.36;85.93;100471.97;346201;28;1161;-82
2023/01/31 00:10:06;;;;;;;16.02;6.65;;;;;;;3.35;86.37;100465.13;346397;28;1396;-82
2023/01/31 00:10:18;;;;;;;12.30;7.05;;;;;;;3.36;86.17;100467.72;346280;28;1054;-82
2023/01/31 00:10:30;;;;;;;11.43;7.13;;;;;;;3.31;86.30;100469.38;346060;28;1070;-82
2023/01/31 00:10:42;;;;;;;10.77;6.80;;;;;;;3.34;86.30;100465.94;346126;28;1236;-82
2023/01/31 00:10:58;;;;;;;12.00;7.60;;;;;;;3.34;85.81;100463.38;346202;28;1006;-82
2023/01/31 00:11:10;;;;;;;14.40;7.53;;;;;;;3.38;86.18;100460.88;345800;28;910;-81
2023/01/31 00:11:24;;;;;;;15.27;6.78;;;;;;;3.42;86.23;100461.78;344828;28;1011;-82
2023/01/31 00:11:36;;;;;;;13.25;6.65;;;;;;;3.42;86.01;100453.19;344886;28;1128;-82
2023/01/31 00:11:49;;;;;;;11.43;6.50;;;;;;;3.44;86.30;100465.22;346478;28;801;-82
2023/01/31 00:12:01;;;;;;;11.05;6.38;;;;;;;3.42;86.03;100466.91;346270;28;1185;-82
2023/01/31 00:12:13;;;;;;;10.73;6.50;;;;;;;3.36;85.79;100461.69;346282;28;1094;-81
2023/01/31 00:12:25;;;;;;;10.38;6.35;;;;;;;3.33;85.72;100459.97;346326;28;1096;-81
2023/01/31 00:12:40;;;;;;;10.18;6.43;;;;;;;3.31;86.14;100463.38;346065;28;1215;-82
2023/01/31 00:12:52;;;;;;;10.18;6.38;;;;;;;3.36;86.28;100456.56;346014;28;1977;-82
2023/01/31 00:13:04;;;;;;;10.77;6.35;;;;;;;3.41;86.05;100457.47;344824;28;1247;-82
2023/01/31 00:13:16;;;;;;;10.13;6.47;;;;;;;3.46;86.14;100462.66;345081;28;770;-82
2023/01/31 00:13:28;;;;;;;11.70;7.10;;;;;;;3.47;85.77;100459.25;344969;28;1059;-81
2023/01/31 00:13:40;;;;;;;11.85;7.13;;;;;;;3.49;85.62;100460.13;345131;28;1183;-82
2023/01/31 00:13:52;;;;;;;10.90;6.82;;;;;;;3.44;85.83;100460.09;345182;28;1215;-82
2023/01/31 00:14:06;;;;;;;10.80;6.50;;;;;;;3.44;85.80;100465.22;344968;28;1159;-82
2023/01/31 00:14:19;;;;;;;11.30;6.40;;;;;;;3.52;85.86;100462.69;345269;28;1081;-81
2023/01/31 00:14:31;;;;;;;12.23;6.55;;;;;;;3.46;85.36;100458.38;344676;28;1023;-81
2023/01/31 00:14:43;;;;;;;12.63;6.72;;;;;;;3.50;85.21;100462.72;344436;28;1062;-82
2023/01/31 00:14:55;;;;;;;12.63;6.63;;;;;;;3.48;85.67;100464.41;344563;28;1557;-81
2023/01/31 00:15:07;;;;;;;13.77;6.60;;;;;;;3.41;85.74;100454.91;343496;28;1007;-81
2023/01/31 00:15:19;;;;;;;13.93;6.55;;;;;;;3.38;86.08;100460.00;343562;28;1051;-81
2023/01/31 00:15:32;;;;;;;12.80;6.68;;;;;;;3.34;85.91;100458.25;343675;28;1034;-82
2023/01/31 00:15:44;;;;;;;11.88;6.82;;;;;;;3.31;85.64;100460.81;343640;28;1211;-82
2023/01/31 00:15:56;;;;;;;12.50;7.28;;;;;;;3.32;86.01;100454.81;343648;28;1102;-82
2023/01/31 00:16:10;;;;;;;12.70;7.40;;;;;;;3.38;86.04;100460.00;343643;28;1165;-82
2023/01/31 00:16:22;;;;;;;11.45;7.18;;;;;;;3.41;86.15;100454.91;343607;28;1094;-82
2023/01/31 00:16:35;;;;;;;12.13;7.15;;;;;;;3.40;86.41;100455.72;344290;28;1203;-82
2023/01/31 00:16:47;;;;;;;13.02;6.88;;;;;;;3.33;86.03;100456.53;343721;28;1071;-82
2023/01/31 00:16:59;;;;;;;14.07;6.80;;;;;;;3.39;86.25;100461.75;343420;28;1004;-81
2023/01/31 00:17:11;;;;;;;14.55;6.80;;;;;;;3.44;86.14;100454.94;344201;28;1030;-81
2023/01/31 00:17:23;;;;;;;15.43;6.72;;;;;;;3.47;86.22;100452.38;344252;28;1128;-81
2023/01/31 00:17:35;;;;;;;14.13;6.75;;;;;;;3.43;85.76;100465.19;344759;28;1177;-81
2023/01/31 00:17:47;;;;;;;13.85;6.95;;;;;;;3.41;85.69;100462.59;344893;28;1228;-82
2023/01/31 00:17:59;;;;;;;11.70;7.15;;;;;;;3.44;86.00;100449.81;344875;28;1193;-81
2023/01/31 00:18:11;;;;;;;12.40;7.07;;;;;;;3.42;86.10;100456.63;345066;28;1086;-81
2023/01/31 00:18:23;;;;;;;13.00;6.85;;;;;;;3.40;85.68;100460.88;344722;28;1173;-82
2023/01/31 00:18:37;;;;;;;12.85;6.93;;;;;;;3.41;86.11;100457.47;344915;28;1068;-82
2023/01/31 00:18:50;;;;;;;12.50;7.10;;;;;;;3.38;85.83;100466.03;345387;28;1063;-81
2023/01/31 00:19:03;;;;;;;13.20;6.85;;;;;;;3.40;86.17;100464.31;346191;28;1069;-81
2023/01/31 00:19:17;;;;;;;14.85;6.95;;;;;;;3.41;85.93;100462.59;346130;28;874;-81
2023/01/31 00:19:29;;;;;;;15.27;6.82;;;;;;;3.38;85.95;100460.00;345923;28;1070;-81
2023/01/31 00:19:41;;;;;;;14.05;6.18;;;;;;;3.44;85.67;100457.50;345965;28;1055;-82
2023/01/31 00:19:53;;;;;;;12.38;6.05;;;;;;;3.40;85.66;100458.31;346202;28;1061;-82
2023/01/31 00:20:05;;;;;;;12.60;6.20;;;;;;;3.43;85.83;100453.22;345463;28;1246;-81
2023/01/31 00:20:20;;;;;;;12.13;6.53;;;;;;;3.41;85.69;100460.03;345314;28;1029;-82
2023/01/31 00:20:32;;;;;;;11.77;6.45;;;;;;;3.44;85.79;100454.94;345288;28;1086;-82
2023/01/31 00:20:44;;;;;;;11.82;6.28;;;;;;;3.38;85.47;100455.75;345130;28;1175;-81
2023/01/31 00:20:56;;;;;;;10.90;6.25;;;;;;;3.42;85.87;100450.63;345158;28;1182;-81
2023/01/31 00:21:13;;;;;;;13.05;6.90;;;;;;;3.48;85.73;100461.84;345165;28;1170;-81
2023/01/31 00:21:28;;;;;;;14.40;7.13;;;;;;;3.37;85.53;100459.16;344942;28;1167;-81
2023/01/31 00:21:42;;;;;;;13.65;6.70;;;;;;;3.38;86.01;100457.44;344747;28;1038;-82
2023/01/31 00:21:55;;;;;;;13.18;6.75;;;;;;;3.37;86.07;100458.28;345296;28;1090;-82
2023/01/31 00:22:07;;;;;;;12.60;6.68;;;;;;;3.40;85.80;100463.44;344948;28;1174;-82
2023/01/31 00:22:19;;;;;;;10.60;6.50;;;;;;;3.38;85.92;100460.88;345061;28;1115;-81
2023/01/31 00:22:31;;;;;;;9.98;6.20;;;;;;;3.42;86.15;100456.63;344928;28;1329;-81
2023/01/31 00:22:43;;;;;;;11.52;6.32;;;;;;;3.44;86.57;100454.94;344876;28;1103;-82
2023/01/31 00:22:55;;;;;;;13.20;6.50;;;;;;;3.46;85.99;100448.09;344905;28;1099;-81
2023/01/31 00:23:06;;;;;;;12.73;6.35;;;;;;;3.45;85.54;100460.94;344808;28;1213;-81
2023/01/31 00:23:18;;;;;;;10.75;6.18;;;;;;;3.48;85.28;100459.25;344885;28;1277;-82
2023/01/31 00:23:30;;;;;;;10.65;6.10;;;;;;;3.45;85.84;100456.66;344845;28;1110;-81
2023/01/31 00:23:44;;;;;;;12.30;6.18;;;;;;;3.43;85.66;100460.06;344675;28;1086;-81
2023/01/31 00:23:57;;;;;;;12.77;6.50;;;;;;;3.40;85.58;100459.19;343808;28;899;-82
2023/01/31 00:24:13;;;;;;;11.93;6.47;;;;;;;3.43;85.78;100458.34;343474;28;1008;-82
2023/01/31 00:24:25;;;;;;;11.80;6.30;;;;;;;3.44;85.59;100457.50;343473;28;1234;-82
2023/01/31 00:24:37;;;;;;;12.48;6.60;;;;;;;3.49;85.80;100458.41;344326;28;1091;-82
2023/01/31 00:24:49;;;;;;;12.75;6.80;;;;;;;3.50;85.59;100460.13;344846;28;1050;-81
2023/01/31 00:25:02;;;;;;;12.98;6.80;;;;;;;3.52;85.31;100463.59;344890;28;1273;-81
2023/01/31 00:25:14;;;;;;;12.70;6.68;;;;;;;3.58;85.28;100455.94;343563;28;1690;-80
2023/01/31 00:25:26;;;;;;;12.93;6.70;;;;;;;3.55;85.17;100455.88;343735;28;1043;-80
2023/01/31 00:25:38;;;;;;;13.98;6.53;;;;;;;3.61;85.35;100460.22;343596;28;1139;-80
2023/01/31 00:25:50;;;;;;;12.38;6.50;;;;;;;3.57;84.88;100461.91;343565;28;1235;-81
2023/01/31 00:26:31;;;;;;;11.90;6.57;;;;;;;3.65;85.36;100458.56;344531;28;1242;-82
2023/01/31 00:26:43;;;;;;;12.20;7.03;;;;;;;3.58;84.57;100458.50;344902;28;1075;-82
2023/01/31 00:26:57;;;;;;;10.80;6.97;;;;;;;3.60;84.96;100455.91;344688;28;1148;-82
2023/01/31 00:27:09;;;;;;;10.18;6.72;;;;;;;3.52;84.59;100458.44;343676;28;1219;-82
2023/01/31 00:27:21;;;;;;;9.88;6.45;;;;;;;3.54;85.17;100456.75;344762;28;1172;-81
2023/01/31 00:27:33;;;;;;;10.80;6.32;;;;;;;3.62;84.62;100466.22;345199;28;1089;-81
2023/01/31 00:27:45;;;;;;;10.18;5.97;;;;;;;3.52;84.86;100455.88;344640;28;1154;-81
2023/01/31 00:27:57;;;;;;;9.70;5.75;;;;;;;3.45;85.00;100445.53;344805;28;1003;-81
2023/01/31 00:28:09;;;;;;;10.13;5.78;;;;;;;3.37;85.04;100453.16;345018;28;1022;-81
2023/01/31 00:28:21;;;;;;;11.55;5.97;;;;;;;3.35;85.17;100460.84;345217;28;1078;-81
2023/01/31 00:28:33;;;;;;;11.65;6.28;;;;;;;3.39;85.17;100470.31;344892;28;1067;-81
2023/01/31 00:28:47;;;;;;;12.10;6.68;;;;;;;3.45;85.57;100466.06;344923;28;1117;-81
2023/01/31 00:29:01;;;;;;;13.55;6.93;;;;;;;3.46;85.31;100458.38;344929;28;1102;-82
2023/01/31 00:29:13;;;;;;;12.70;6.85;;;;;;;3.47;85.69;100461.81;344900;28;1213;-81
2023/01/31 00:29:25;;;;;;;12.00;6.53;;;;;;;3.41;85.38;100457.47;345017;28;1257;-81
2023/01/31 00:29:37;;;;;;;12.45;6.40;;;;;;;3.42;85.19;100456.63;345020;28;1200;-82
2023/01/31 00:29:50;;;;;;;11.95;6.32;;;;;;;3.37;85.59;100450.59;344808;28;1022;-81
2023/01/31 00:30:02;;;;;;;13.30;6.60;;;;;;;3.42;85.52;100464.34;344628;28;1229;-81
2023/01/31 00:30:17;;;;;;;12.93;6.80;;;;;;;3.50;85.27;100464.41;345116;28;1070;-82
2023/01/31 00:30:29;;;;;;;12.35;6.68;;;;;;;3.49;85.19;100453.25;345191;28;1235;-82
2023/01/31 00:30:41;;;;;;;12.73;6.75;;;;;;;3.48;85.37;100466.97;345288;28;1240;-82
2023/01/31 00:30:52;;;;;;;11.98;6.50;;;;;;;3.43;85.38;100463.50;344823;28;1157;-81
2023/01/31 00:31:05;;;;;;;11.25;6.32;;;;;;;3.45;85.23;100460.94;345011;28;2122;-82
2023/01/31 00:31:19;;;;;;;10.73;6.20;;;;;;;3.44;85.34;100459.19;344914;28;1052;-81
2023/01/31 00:31:33;;;;;;;12.27;6.45;;;;;;;3.51;85.60;100464.41;344844;28;1055;-81
2023/01/31 00:31:46;;;;;;;11.57;6.30;;;;;;;3.40;85.31;100464.31;344786;28;1121;-81
2023/01/31 00:31:58;;;;;;;10.88;6.15;;;;;;;3.44;85.36;100467.78;344832;28;1070;-82
2023/01/31 00:32:10;;;;;;;10.65;6.43;;;;;;;3.40;85.43;100463.44;344772;28;1022;-81
2023/01/31 00:32:25;;;;;;;11.73;6.18;;;;;;;3.38;85.18;100470.28;345088;28;1054;-82
2023/01/31 00:32:37;;;;;;;12.02;6.00;;;;;;;3.36;85.22;100459.13;344831;28;1535;-82
2023/01/31 00:32:49;;;;;;;12.60;6.18;;;;;;;3.38;85.13;100454.84;345015;28;1015;-82
2023/01/31 00:33:01;;;;;;;13.13;6.30;;;;;;;3.37;85.76;100459.16;345238;28;844;-82
2023/01/31 00:33:13;;;;;;;13.43;6.28;;;;;;;3.39;85.60;100461.75;344930;28;1154;-82
2023/01/31 00:33:25;;;;;;;11.68;6.03;;;;;;;3.34;85.60;100459.13;345252;28;748;-82
2023/01/31 00:33:40;;;;;;;10.02;6.07;;;;;;;3.32;85.56;100460.81;346032;28;1066;-82
2023/01/31 00:33:53;;;;;;;11.50;6.43;;;;;;;3.25;85.88;100469.31;345754;28;950;-82
2023/01/31 00:34:05;;;;;;;12.68;6.57;;;;;;;3.27;86.09;100466.75;346061;28;1058;-82
2023/01/31 00:34:17;;;;;;;12.95;6.88;;;;;;;3.24;86.17;100461.56;346140;28;949;-82
2023/01/31 00:34:29;;;;;;;14.55;7.20;;;;;;;3.25;85.93;100463.31;346150;28;1183;-81
2023/01/31 00:34:41;;;;;;;14.70;7.03;;;;;;;3.28;85.60;100464.22;345745;28;1907;-82
2023/01/31 00:34:53;;;;;;;13.13;6.75;;;;;;;3.27;85.87;100453.91;346030;28;1147;-82
2023/01/31 00:35:05;;;;;;;11.85;6.22;;;;;;;3.27;86.01;100466.75;345864;28;1173;-82
2023/01/31 00:35:17;;;;;;;12.32;6.13;;;;;;;3.17;86.34;100456.38;346058;28;1030;-82
2023/01/31 00:35:30;;;;;;;12.65;6.00;;;;;;;3.24;86.26;100464.16;346014;28;1132;-82
2023/01/31 00:35:42;;;;;;;12.02;5.90;;;;;;;3.28;86.39;100458.19;345297;28;1031;-81
2023/01/31 00:35:54;;;;;;;8.98;5.53;;;;;;;3.32;86.04;100459.94;345330;28;1088;-82
2023/01/31 00:36:09;;;;;;;9.85;6.10;;;;;;;3.28;86.28;100458.19;344761;28;1037;-81
2023/01/31 00:36:27;;;;;;;11.32;6.55;;;;;;;3.32;85.76;100452.22;344764;28;995;-82
2023/01/31 00:36:39;;;;;;;10.90;6.18;;;;;;;3.28;85.85;100458.19;344908;28;1020;-82
2023/01/31 00:36:51;;;;;;;12.38;6.30;;;;;;;3.29;85.99;100454.78;344865;28;1011;-82
2023/01/31 00:37:03;;;;;;;12.60;6.75;;;;;;;3.24;85.96;100465.03;344986;28;1054;-82
2023/01/31 00:37:15;;;;;;;10.07;6.55;;;;;;;3.32;86.04;100459.94;344997;28;1069;-82
2023/01/31 00:37:27;;;;;;;9.73;6.13;;;;;;;3.30;86.00;100449.66;344662;28;1266;-82
2023/01/31 00:37:39;;;;;;;10.75;6.22;;;;;;;3.25;85.86;100464.16;345100;28;1038;-82
2023/01/31 00:37:51;;;;;;;10.13;6.53;;;;;;;3.31;86.02;100450.53;344985;28;1047;-82
2023/01/31 00:38:03;;;;;;;11.73;6.65;;;;;;;3.31;86.29;100455.66;345018;28;1213;-81
2023/01/31 00:38:18;;;;;;;12.05;6.25;;;;;;;3.33;85.88;100456.53;344673;28;1019;-82
2023/01/31 00:38:31;;;;;;;11.43;6.28;;;;;;;3.37;85.85;100448.00;345019;28;1218;-82
2023/01/31 00:38:44;;;;;;;13.32;7.05;;;;;;;3.33;85.87;100461.69;345277;28;1058;-82
2023/01/31 00:39:01;;;;;;;16.92;7.35;;;;;;;3.34;86.05;100450.53;345130;28;998;-81
2023/01/31 00:39:13;;;;;;;16.15;7.60;;;;;;;3.27;85.84;100466.75;344994;28;1033;-81
2023/01/31 00:39:25;;;;;;;13.52;7.18;;;;;;;3.23;85.93;100460.72;344874;28;1027;-81
2023/01/31 00:39:37;;;;;;;12.25;6.60;;;;;;;3.24;86.12;100466.72;344636;28;999;-82
2023/01/31 00:39:51;;;;;;;10.95;6.50;;;;;;;3.26;86.01;100465.91;344861;28;1153;-82
2023/01/31 00:40:03;;;;;;;11.25;6.30;;;;;;;3.35;86.32;100459.97;344792;28;1180;-81
2023/01/31 00:40:18;;;;;;;13.90;6.88;;;;;;;3.31;85.90;100453.09;344447;28;1195;-82
2023/01/31 00:40:30;;;;;;;14.00;6.70;;;;;;;3.32;85.62;100449.66;344836;28;1019;-81
2023/01/31 00:40:42;;;;;;;10.35;6.13;;;;;;;3.40;85.57;100464.31;344816;28;1024;-81
2023/01/31 00:40:54;;;;;;;9.55;6.00;;;;;;;3.40;85.76;100463.44;344906;28;1235;-82
2023/01/31 00:41:06;;;;;;;9.38;6.32;;;;;;;3.34;85.53;100463.38;346198;28;1033;-82
2023/01/31 00:41:20;;;;;;;10.82;6.63;;;;;;;3.34;85.42;100458.25;346267;28;1039;-81
2023/01/31 00:41:33;;;;;;;11.40;6.63;;;;;;;3.33;85.96;100448.84;346211;28;1171;-82
2023/01/31 00:41:45;;;;;;;10.88;6.60;;;;;;;3.22;85.60;100471.84;346306;28;1151;-80
2023/01/31 00:41:57;;;;;;;10.32;6.70;;;;;;;3.25;85.45;100459.03;346274;28;1099;-80
2023/01/31 00:42:09;;;;;;;13.25;6.82;;;;;;;3.20;85.89;100466.69;346285;28;1062;-80
2023/01/31 00:42:21;;;;;;;13.73;6.50;;;;;;;3.15;86.55;100452.94;345930;28;1176;-80
2023/01/31 00:42:33;;;;;;;12.55;6.82;;;;;;;3.11;86.74;100461.44;346091;28;1438;-81
2023/01/31 00:42:45;;;;;;;11.15;7.00;;;;;;;3.06;86.31;100462.25;346581;28;832;-81
2023/01/31 00:42:57;;;;;;;13.55;6.55;;;;;;;3.09;86.19;100460.56;344880;28;1190;-80
2023/01/31 00:43:09;;;;;;;14.30;6.45;;;;;;;3.01;86.11;100459.63;344852;28;1102;-80
2023/01/31 00:43:21;;;;;;;15.10;6.72;;;;;;;3.09;86.30;100462.28;344803;28;1169;-80
2023/01/31 00:43:34;;;;;;;14.10;6.80;;;;;;;3.09;86.55;100459.72;344749;28;945;-81
2023/01/31 00:43:46;;;;;;;13.30;6.50;;;;;;;3.15;86.72;100459.78;343543;28;1212;-80
2023/01/31 00:43:58;;;;;;;13.52;6.70;;;;;;;3.14;86.86;100461.50;342144;28;1112;-81
2023/01/31 00:44:10;;;;;;;12.18;6.80;;;;;;;3.05;86.25;100456.25;342642;28;1198;-81
2023/01/31 00:44:22;;;;;;;11.05;6.45;;;;;;;3.09;86.96;100457.16;343822;28;1186;-81
2023/01/31 00:44:34;;;;;;;12.18;6.47;;;;;;;3.09;86.52;100460.56;343331;28;1058;-81
2023/01/31 00:44:47;;;;;;;12.80;6.50;;;;;;;3.12;86.62;100452.91;343559;28;1197;-80
2023/01/31 00:45:00;;;;;;;10.60;6.00;;;;;;;3.21;86.80;100457.28;344268;28;1148;-81
2023/01/31 00:45:12;;;;;;;11.15;6.10;;;;;;;3.18;86.61;100455.53;344992;28;1187;-80
2023/01/31 00:45:24;;;;;;;12.15;6.65;;;;;;;3.20;86.58;100459.00;344973;28;1070;-80
2023/01/31 00:45:36;;;;;;;12.82;7.20;;;;;;;3.18;86.30;100458.13;345068;28;1066;-80
2023/01/31 00:45:48;;;;;;;13.32;7.15;;;;;;;3.11;86.60;100455.47;345050;28;1099;-81
2023/01/31 00:46:00;;;;;;;14.32;7.45;;;;;;;3.15;86.57;100449.50;344822;28;1053;-80
2023/01/31 00:46:12;;;;;;;13.85;7.30;;;;;;;3.11;86.70;100456.31;344335;28;1037;-80
2023/01/31 00:46:25;;;;;;;14.27;6.97;;;;;;;3.10;86.51;100454.59;345078;28;1057;-81
2023/01/31 00:46:37;;;;;;;14.40;6.72;;;;;;;3.14;86.47;100455.47;345223;28;848;-81
2023/01/31 00:46:50;;;;;;;14.80;6.85;;;;;;;3.05;86.63;100456.25;344952;28;1041;-80
2023/01/31 00:47:02;;;;;;;13.20;6.65;;;;;;;3.08;87.25;100461.44;344882;28;1026;-81
2023/01/31 00:47:14;;;;;;;11.50;6.65;;;;;;;3.08;86.41;100456.28;345014;28;1177;-80
2023/01/31 00:47:26;;;;;;;12.27;6.80;;;;;;;3.09;86.40;100447.72;344978;28;1074;-81
2023/01/31 00:47:38;;;;;;;11.60;6.03;;;;;;;3.11;86.68;100470.88;344949;28;1174;-80
2023/01/31 00:47:50;;;;;;;12.25;6.22;;;;;;;3.14;86.53;100463.19;344891;28;1091;-81
2023/01/31 00:48:02;;;;;;;11.50;6.15;;;;;;;3.11;86.76;100448.59;345260;28;1022;-80
2023/01/31 00:48:14;;;;;;;11.85;6.45;;;;;;;3.12;86.47;100463.19;345058;28;1169;-80
2023/01/31 00:48:27;;;;;;;11.68;6.63;;;;;;;3.13;86.95;100458.91;346011;28;1199;-80
2023/01/31 00:48:39;;;;;;;13.63;7.05;;;;;;;3.11;86.50;100455.47;346111;28;1030;-80
2023/01/31 00:48:51;;;;;;;13.25;6.70;;;;;;;3.08;86.47;100455.41;346230;28;1026;-80
2023/01/31 00:49:04;;;;;;;12.25;6.40;;;;;;;3.12;86.65;100464.88;346041;28;1058;-80
2023/01/31 00:49:16;;;;;;;10.70;6.55;;;;;;;3.07;86.99;100451.97;346018;28;888;-80
2023/01/31 00:49:28;;;;;;;11.13;6.83;;;;;;;3.02;86.87;100461.38;346190;28;1098;-81
2023/01/31 00:49:40;;;;;;;11.13;6.65;;;;;;;3.04;86.99;100459.69;346608;28;757;-81
2023/01/31 00:49:52;;;;;;;12.32;6.82;;;;;;;3.11;87.22;100456.31;346161;28;1059;-81
2023/01/31 00:50:04;;;;;;;12.93;7.00;;;;;;;3.15;86.96;100460.63;345979;28;1148;-81
2023/01/31 00:50:16;;;;;;;12.77;6.68;;;;;;;3.24;86.70;100449.63;345910;28;1041;-81
2023/01/31 00:50:28;;;;;;;12.73;6.25;;;;;;;3.14;87.06;100461.50;345574;28;1057;-81
2023/01/31 00:50:40;;;;;;;12.43;5.82;;;;;;;3.14;86.72;100456.34;344899;28;1143;-80
2023/01/31 00:50:52;;;;;;;15.40;5.88;;;;;;;3.14;86.58;100466.63;344915;28;1067;-80
2023/01/31 00:51:04;;;;;;;15.05;6.07;;;;;;;3.17;86.63;100461.50;344819;28;1031;-80
2023/01/31 00:51:17;;;;;;;15.27;7.75;;;;;;;3.14;86.43;100466.63;345208;28;1050;-80
2023/01/31 00:51:32;;;;;;;15.15;8.27;;;;;;;3.10;86.52;100454.59;344782;28;1023;-81
2023/01/31 00:51:45;;;;;;;14.73;7.10;;;;;;;3.16;86.83;100457.22;344867;28;1219;-80
2023/01/31 00:51:57;;;;;;;13.73;6.53;;;;;;;3.19;86.28;100464.97;345099;28;1149;-80
2023/01/31 00:52:09;;;;;;;12.40;6.40;;;;;;;3.14;86.31;100456.34;344882;28;1059;-80
2023/01/31 00:52:21;;;;;;;11.60;6.47;;;;;;;3.14;86.87;100461.50;346207;28;1093;-80
2023/01/31 00:52:33;;;;;;;12.02;6.72;;;;;;;3.05;86.65;100457.97;346351;28;1597;-80
2023/01/31 00:52:46;;;;;;;11.38;6.45;;;;;;;3.02;86.69;100461.38;346202;28;1018;-80
2023/01/31 00:52:58;;;;;;;10.80;5.93;;;;;;;3.02;86.68;100461.38;346081;28;1059;-80
2023/01/31 00:53:10;;;;;;;11.45;6.50;;;;;;;3.02;86.62;100458.78;346077;28;1071;-81
2023/01/31 00:53:24;;;;;;;12.25;6.85;;;;;;;3.06;86.90;100457.09;346205;28;1051;-81
2023/01/31 00:53:37;;;;;;;10.75;6.68;;;;;;;2.99;86.66;100466.44;346187;28;1165;-81
2023/01/31 00:53:49;;;;;;;11.57;6.40;;;;;;;3.00;87.35;100457.91;346241;28;1047;-80
2023/01/31 00:54:01;;;;;;;12.40;6.55;;;;;;;3.04;87.29;100454.53;345938;28;990;-81
2023/01/31 00:54:13;;;;;;;12.40;7.07;;;;;;;3.09;87.18;100457.16;346143;28;1046;-81
2023/01/31 00:54:25;;;;;;;11.98;7.07;;;;;;;3.13;87.26;100458.91;345620;28;1163;-80
2023/01/31 00:54:38;;;;;;;12.73;7.03;;;;;;;3.20;87.13;100455.56;344686;28;1169;-81
2023/01/31 00:54:50;;;;;;;12.38;6.93;;;;;;;3.24;86.63;100457.31;345118;28;956;-80
2023/01/31 00:55:02;;;;;;;11.82;6.75;;;;;;;3.24;86.66;100451.28;346088;28;1010;-80
2023/01/31 00:55:14;;;;;;;12.38;6.60;;;;;;;3.24;86.33;100456.44;346244;28;1233;-80
2023/01/31 00:55:26;;;;;;;13.70;6.22;;;;;;;3.22;86.54;100458.13;346239;28;1031;-80
2023/01/31 00:55:38;;;;;;;13.40;6.18;;;;;;;3.15;86.86;100458.06;346255;28;1085;-81
2023/01/31 00:55:55;;;;;;;11.45;6.10;;;;;;;3.09;86.16;100463.13;344990;28;1169;-81
2023/01/31 00:56:12;;;;;;;12.75;6.28;;;;;;;3.11;86.59;100451.16;343627;28;1183;-81
2023/01/31 00:56:24;;;;;;;12.02;6.13;;;;;;;3.04;86.65;100462.25;343317;28;910;-81
2023/01/31 00:56:37;;;;;;;12.05;5.90;;;;;;;3.09;86.67;100458.00;343463;28;1906;-80
2023/01/31 00:56:49;;;;;;;13.15;6.25;;;;;;;3.13;86.79;100449.47;343757;28;871;-81
2023/01/31 00:57:01;;;;;;;12.20;6.40;;;;;;;3.09;87.02;100441.72;343594;28;1069;-81
2023/01/31 00:57:13;;;;;;;13.07;7.30;;;;;;;3.03;86.99;100455.38;343717;28;1011;-81
2023/01/31 00:57:25;;;;;;;13.05;7.97;;;;;;;3.02;87.00;100453.66;343270;28;1191;-81
2023/01/31 00:57:36;;;;;;;12.95;8.00;;;;;;;3.07;87.27;100457.13;343662;28;1154;-81
2023/01/31 00:57:48;;;;;;;13.57;7.00;;;;;;;3.08;87.07;100456.28;343902;28;741;-81
2023/01/31 00:58:00;;;;;;;13.98;6.63;;;;;;;3.04;86.86;100453.66;345098;28;897;-81
2023/01/31 00:58:12;;;;;;;12.25;6.22;;;;;;;3.07;86.97;100454.56;345856;28;1007;-81
2023/01/31 00:58:24;;;;;;;13.27;8.20;;;;;;;3.08;87.16;100457.97;346267;28;1071;-80
2023/01/31 00:58:38;;;;;;;15.90;9.70;;;;;;;3.09;87.04;100463.13;345839;28;1194;-81
2023/01/31 00:58:51;;;;;;;16.45;9.73;;;;;;;3.13;87.09;100459.75;345706;28;859;-81
2023/01/31 00:59:07;;;;;;;12.85;6.53;;;;;;;3.24;86.62;100453.88;346147;28;1087;-81
2023/01/31 00:59:19;;;;;;;12.15;6.40;;;;;;;3.24;86.69;100452.19;346095;28;1193;-81
2023/01/31 00:59:31;;;;;;;10.77;5.90;;;;;;;3.18;86.35;100458.13;346045;28;1047;-81
2023/01/31 00:59:43;;;;;;;10.35;5.78;;;;;;;3.30;86.20;100447.09;346263;28;1066;-80
2023/01/31 00:59:55;;;;;;;11.75;5.97;;;;;;;3.31;86.29;100446.25;347181;28;1220;-80
2023/01/31 01:00:07;;;;;;;12.48;6.32;;;;;;;3.25;86.35;100447.91;346514;28;1067;-81
2023/01/31 01:00:19;;;;;;;11.85;6.35;;;;;;;3.23;86.43;100455.59;346365;28;1228;-81
2023/01/31 01:00:32;;;;;;;11.52;7.55;;;;;;;3.19;85.91;100459.81;345985;28;1164;-81
2023/01/31 01:00:44;;;;;;;11.95;8.20;;;;;;;3.16;86.50;100454.66;346213;28;847;-81